Extreme high temperature From: 23-07-2018 05:00 Until: 24-07-2018 01:00 warning for: Extreme high temperature Level: Yellow info button
suomi:
Hellevaroitus: Lähivuorokauden aikana on odotettavissa tukalaa hellettä.

svenska:
Varning för värmebölja: Under det närmaste dygnet är den svåra hettan att vänta.

english:
Heat wave warning: Warm weather is expected during the coming 24 hours. 


Thunder radar more information blitzortung!


Löydät sääaseman tiedot myös:

European Weather Network

Finland Weather Exchange

Weather Underground

AWEKAS



Weather Underground säähistoriasivu

Päivittäin yhteenveto Helmikuu 6, 2017 Yksiköt:  Englantilaiset    Metriset   Molemmat
« Edellinen Päivä
Seuraava Päivä »
Päivittäin Viikoittain Kuukausittain Vuosittain Mukautettu
  Korkea: Matala: Keskiarvo:
Lämpötila: TemperatureC °F -15.7 °F -8.8 °F
Kastepiste: DewpointC °F -17.3 °F -10.5 °F
Kosteus: Humidity % 81 % 86 %
Tuulen nopeus: WindSpeedKMH mph 0.0 mph 0.3 mph
Tuulenpuuska: WindSpeedGustKMH mph - -
Tuuli:- - SSE
Ilmanpaine: PressurehPa in 1030.4 in -
Sade: 0.0 in    
Historical Graphs
 
 
Taulukkotiedot Helmikuu 6, 2017
Aika Lämpötila Kastepiste Ilmanpaine Tuuli Tuulen nopeus Tuulenpuuska Kosteus Sademäärä (tunneittain)
TemperatureC °F DewpointC °F PressurehPa in Calm     Humidity % HourlyPrecipMM in
00:00 -5.1 °F -6.4 °F 1030.4 in East 3.2 mph 11.3 mph 90 % 0.0 in
00:15 -5.1 °F -6.4 °F 1030.7 in SSE 1.6 mph 6.4 mph 90 % 0.0 in
00:30 -5.1 °F -6.4 °F 1031.0 in SSE 1.6 mph 8.0 mph 90 % 0.0 in
00:45 -5.0 °F -6.5 °F 1031.4 in ESE 3.2 mph 16.1 mph 89 % 0.0 in
01:00 -5.0 °F -6.7 °F 1031.4 in Calm   6.4 mph 88 % 0.0 in
01:15 -5.1 °F -6.9 °F 1031.7 in SSE 1.6 mph 8.0 mph 87 % 0.0 in
01:30 -5.1 °F -6.9 °F 1031.7 in Calm   6.4 mph 87 % 0.0 in
01:45 -5.1 °F -6.9 °F 1031.7 in Calm   6.4 mph 87 % 0.0 in
02:00 -5.1 °F -6.9 °F 1032.1 in Calm   3.2 mph 87 % 0.0 in
02:15 -5.1 °F -6.9 °F 1032.4 in Calm   9.7 mph 87 % 0.0 in
02:30 -5.1 °F -6.8 °F 1032.4 in Calm   6.4 mph 88 % 0.0 in
02:45 -5.2 °F -7.0 °F 1032.7 in SE 1.6 mph 6.4 mph 87 % 0.0 in
03:00 -5.3 °F -7.3 °F 1032.7 in Calm   6.4 mph 86 % 0.0 in
03:15 -5.4 °F -7.6 °F 1032.7 in Calm   6.4 mph 85 % 0.0 in
03:30 -5.5 °F -7.5 °F 1033.1 in Calm   3.2 mph 86 % 0.0 in
03:45 -5.6 °F -7.5 °F 1033.1 in Calm   4.8 mph 86 % 0.0 in
04:00 -5.6 °F -7.4 °F 1033.4 in Calm   6.4 mph 87 % 0.0 in
04:15 -5.7 °F -7.7 °F 1033.4 in Calm   8.0 mph 86 % 0.0 in
04:30 -5.8 °F -7.8 °F 1033.7 in Calm   6.4 mph 86 % 0.0 in
04:45 -6.1 °F -8.1 °F 1033.7 in Calm     86 % 0.0 in
05:00 -6.4 °F -8.4 °F 1033.7 in Calm     86 % 0.0 in
05:15 -6.8 °F -8.8 °F 1034.1 in Calm     86 % 0.0 in
05:30 -7.2 °F -9.0 °F 1034.4 in Calm     87 % 0.0 in
05:45 -7.4 °F -9.0 °F 1034.8 in Calm   1.6 mph 88 % 0.0 in
06:00 -7.6 °F -9.2 °F 1034.8 in Calm     88 % 0.0 in
06:15 -7.7 °F -9.3 °F 1035.1 in Calm   1.6 mph 88 % 0.0 in
06:30 -7.7 °F -9.2 °F 1035.1 in Calm   1.6 mph 89 % 0.0 in
06:45 -7.6 °F -9.2 °F 1035.4 in Calm   3.2 mph 88 % 0.0 in
07:00 -7.5 °F -9.1 °F 1035.4 in Calm   4.8 mph 88 % 0.0 in
07:30 -7.4 °F -9.3 °F 1035.8 in Calm   6.4 mph 86 % 0.0 in
07:45 -7.4 °F -9.4 °F 1036.1 in Calm   8.0 mph 86 % 0.0 in
08:00 -7.7 °F -9.8 °F 1036.1 in Calm   6.4 mph 85 % 0.0 in
08:15 -7.7 °F -9.7 °F 1036.5 in Calm   3.2 mph 86 % 0.0 in
08:30 -7.8 °F -9.7 °F 1036.5 in Calm   6.4 mph 86 % 0.0 in
08:45 -7.9 °F -9.8 °F 1036.8 in Calm     86 % 0.0 in
09:00 -8.1 °F -10.0 °F 1037.1 in Calm   1.6 mph 86 % 0.0 in
09:15 -8.2 °F -9.9 °F 1037.5 in Calm   8.0 mph 87 % 0.0 in
09:30 -8.3 °F -10.2 °F 1037.5 in Calm   1.6 mph 86 % 0.0 in
09:45 -8.4 °F -10.2 °F 1037.8 in Calm   4.8 mph 87 % 0.0 in
10:00 -8.5 °F -10.3 °F 1037.8 in Calm     87 % 0.0 in
10:15 -8.6 °F -10.4 °F 1037.8 in Calm   1.6 mph 87 % 0.0 in
10:30 -8.6 °F -10.4 °F 1038.1 in Calm   4.8 mph 87 % 0.0 in
10:45 -8.4 °F -10.2 °F 1038.5 in Calm   6.4 mph 87 % 0.0 in
11:00 -8.2 °F -10.0 °F 1038.5 in Calm   6.4 mph 87 % 0.0 in
11:15 -8.1 °F -10.0 °F 1038.8 in Calm   8.0 mph 86 % 0.0 in
11:30 -7.8 °F -9.9 °F 1038.8 in SSE 1.6 mph 9.7 mph 85 % 0.0 in
11:45 -7.6 °F -9.6 °F 1038.8 in Calm   3.2 mph 85 % 0.0 in
12:00 -7.3 °F -9.5 °F 1038.8 in Calm   8.0 mph 84 % 0.0 in
12:15 -7.2 °F -9.5 °F 1039.2 in SSE 1.6 mph 6.4 mph 84 % 0.0 in
12:30 -7.2 °F -9.5 °F 1039.2 in SE 3.2 mph 9.7 mph 84 % 0.0 in
12:45 -7.2 °F -9.6 °F 1039.2 in SSE 1.6 mph 11.3 mph 83 % 0.0 in
13:00 -7.1 °F -9.4 °F 1039.2 in Calm   3.2 mph 84 % 0.0 in
13:15 -7.1 °F -9.3 °F 1039.5 in Calm   6.4 mph 84 % 0.0 in
13:30 -7.1 °F -9.4 °F 1039.5 in Calm   4.8 mph 84 % 0.0 in
13:45 -7.1 °F -9.2 °F 1039.8 in Calm   3.2 mph 85 % 0.0 in
14:15 -7.1 °F -9.3 °F 1039.8 in Calm   6.4 mph 84 % 0.0 in
14:30 -7.1 °F -9.3 °F 1039.8 in Calm   8.0 mph 84 % 0.0 in
14:45 -6.9 °F -9.2 °F 1040.2 in SSE 1.6 mph 11.3 mph 84 % 0.0 in
15:00 -6.9 °F -9.7 °F 1040.2 in SSE 1.6 mph 6.4 mph 81 % 0.0 in
15:15 -7.6 °F -10.3 °F 1040.5 in Calm   6.4 mph 81 % 0.0 in
15:30 -7.9 °F -10.3 °F 1040.5 in Calm   1.6 mph 83 % 0.0 in
15:45 -8.2 °F -10.4 °F 1040.5 in Calm     84 % 0.0 in
16:00 -8.6 °F -10.6 °F 1040.5 in Calm     85 % 0.0 in
16:15 -8.9 °F -10.8 °F 1040.9 in Calm     86 % 0.0 in
16:30 -9.2 °F -10.9 °F 1040.9 in Calm     87 % 0.0 in
16:45 -9.6 °F -11.4 °F 1041.2 in Calm     87 % 0.0 in
17:00 -9.9 °F -11.6 °F 1041.2 in Calm     88 % 0.0 in
17:15 -10.6 °F -12.2 °F 1041.2 in Calm     88 % 0.0 in
17:45 -11.4 °F -12.9 °F 1041.5 in Calm     89 % 0.0 in
18:00 -11.8 °F -13.3 °F 1041.5 in Calm     89 % 0.0 in
18:15 -12.2 °F -13.6 °F 1041.9 in Calm     89 % 0.0 in
18:30 -12.4 °F -13.7 °F 1041.9 in Calm     90 % 0.0 in
18:45 -12.4 °F -13.7 °F 1041.9 in Calm     90 % 0.0 in
19:00 -12.6 °F -13.9 °F 1041.9 in Calm     90 % 0.0 in
19:15 -12.8 °F -14.1 °F 1041.9 in Calm     90 % 0.0 in
19:30 -13.0 °F -14.3 °F 1042.2 in Calm     90 % 0.0 in
19:45 -13.1 °F -14.4 °F 1042.2 in Calm     90 % 0.0 in
20:00 -13.3 °F -14.6 °F 1042.2 in Calm     90 % 0.0 in
20:15 -13.4 °F -14.7 °F 1042.2 in Calm     90 % 0.0 in
20:30 -13.6 °F -14.9 °F 1042.5 in Calm     90 % 0.0 in
20:45 -13.6 °F -14.8 °F 1042.5 in Calm     90 % 0.0 in
21:00 -13.6 °F -14.9 °F 1042.5 in Calm     90 % 0.0 in
21:15 -13.8 °F -15.3 °F 1042.5 in Calm     89 % 0.0 in
21:30 -14.1 °F -15.5 °F 1042.9 in Calm     89 % 0.0 in
21:45 -14.3 °F -15.7 °F 1042.9 in Calm     89 % 0.0 in
22:00 -14.5 °F -15.9 °F 1043.2 in Calm     89 % 0.0 in
22:15 -14.7 °F -16.1 °F 1043.2 in Calm     89 % 0.0 in
22:30 -15.0 °F -16.4 °F 1043.2 in Calm     89 % 0.0 in
22:45 -15.2 °F -16.6 °F 1043.2 in Calm     89 % 0.0 in
23:00 -15.3 °F -16.7 °F 1043.2 in Calm     89 % 0.0 in
23:15 -15.4 °F -16.8 °F 1043.6 in Calm     89 % 0.0 in
23:30 -15.5 °F -17.0 °F 1043.6 in Calm     88 % 0.0 in
23:45 -15.7 °F -17.3 °F 1043.9 in Calm     88 % 0.0 in
Esan sääasema
Terveisin Weather Underground - 2.75 mb

Alkuperäinen skripti  Jim McMurry - jmcmurry@mwt.net Sovitettu myös templatelle  Wim van der Kuil - Leuven-Template.eu

Laitteet joita käytämme:

Sääasema
Davis VP2

Sääasemaohjelma
Cumulus

Sääaseman tietokone
Asus EeePC

Palveluntarjoaja
Suncomet

Davis VP2

Cumulus

Asus EeePC

Suncomet